Time;durP1;ratioP1;P1;durP2;ratioP2;P2;SDS_P1;SDS_P2;PMS_P1;PMS_P2;Temp;Humidity;BMP_temperature;BMP_pressure;BME280_temperature;BME280_humidity;BME280_pressure;Samples;Min_cycle;Max_cycle;Signal;HPM_P1;HPM_P2
2022/10/13 00:04:25;;;;;;;6.50;3.75;;;13.40;93.30;;;;;;10398383;28;20018;-59
2022/10/13 00:09:26;;;;;;;8.05;5.07;;;13.40;93.30;;;;;;10397084;28;20099;-59
2022/10/13 00:14:27;;;;;;;9.07;4.20;;;13.40;93.30;;;;;;10400743;28;20371;-59
2022/10/13 00:19:29;;;;;;;8.27;4.50;;;13.40;93.30;;;;;;10396455;28;20029;-60
2022/10/13 00:24:29;;;;;;;10.23;4.45;;;13.30;93.30;;;;;;10398558;28;20087;-60
2022/10/13 00:29:30;;;;;;;9.05;4.10;;;13.30;93.40;;;;;;10398710;28;20057;-60
2022/10/13 00:34:31;;;;;;;7.18;4.00;;;13.30;93.30;;;;;;10397773;28;20022;-61
2022/10/13 00:39:31;;;;;;;8.30;4.38;;;13.40;93.70;;;;;;10400709;28;20029;-59
2022/10/13 00:44:57;;;;;;;8.57;4.28;;;13.30;93.40;;;;;;10404034;28;20036;-60
2022/10/13 00:49:59;;;;;;;9.98;4.35;;;13.40;93.40;;;;;;10404201;28;20049;-60
2022/10/13 00:55:02;;;;;;;7.93;4.70;;;13.30;93.40;;;;;;10407389;28;20041;-60
2022/10/13 01:00:03;;;;;;;7.90;4.82;;;13.30;93.40;;;;;;10406350;28;20079;-59
2022/10/13 01:05:06;;;;;;;12.75;5.20;;;13.30;93.40;;;;;;10405746;28;20040;-59
2022/10/13 01:10:07;;;;;;;8.85;4.15;;;13.30;93.40;;;;;;10405453;28;20048;-59
2022/10/13 01:15:16;;;;;;;11.48;5.40;;;13.30;93.40;;;;;;10405012;28;20037;-60
2022/10/13 01:20:29;;;;;;;9.35;4.88;;;13.30;93.50;;;;;;10400245;28;20121;-59
2022/10/13 01:26:04;;;;;;;9.70;4.43;;;13.30;93.50;;;;;;10405324;28;20057;-60
2022/10/13 01:31:15;;;;;;;6.68;4.53;;;13.30;93.50;;;;;;10406852;28;20033;-59
2022/10/13 01:36:18;;;;;;;8.65;4.57;;;13.30;93.50;;;;;;10403895;28;20056;-59
2022/10/13 01:41:37;;;;;;;10.90;4.80;;;13.30;93.50;;;;;;10405765;28;20041;-59
2022/10/13 01:46:38;;;;;;;8.38;5.15;;;13.20;93.50;;;;;;10402073;28;20121;-59
2022/10/13 01:51:40;;;;;;;7.63;4.30;;;13.20;93.50;;;;;;10404452;28;20022;-60
2022/10/13 01:56:41;;;;;;;7.47;4.32;;;13.20;93.50;;;;;;10403758;28;20033;-59
2022/10/13 02:02:06;;;;;;;9.23;4.75;;;13.20;93.50;;;;;;10403587;28;20288;-59
2022/10/13 02:07:26;;;;;;;11.20;4.70;;;13.20;93.60;;;;;;10402759;28;20405;-59
2022/10/13 02:12:37;;;;;;;7.88;4.75;;;13.20;93.60;;;;;;10401992;28;20360;-59
2022/10/13 02:17:39;;;;;;;8.32;5.47;;;13.20;93.60;;;;;;10403696;28;20021;-60
2022/10/13 02:22:44;;;;;;;8.60;4.72;;;13.20;93.60;;;;;;10402301;28;20032;-59
2022/10/13 02:27:45;;;;;;;9.50;4.80;;;13.20;93.60;;;;;;10399247;28;20525;-60
2022/10/13 02:32:45;;;;;;;7.78;4.50;;;13.20;93.60;;;;;;10402691;28;20025;-59
2022/10/13 02:37:46;;;;;;;11.00;4.88;;;13.20;93.60;;;;;;10398404;28;20083;-63
2022/10/13 02:42:47;;;;;;;8.75;4.85;;;13.20;93.90;;;;;;10399365;28;20014;-60
2022/10/13 02:47:48;;;;;;;11.55;5.38;;;13.20;93.60;;;;;;10396999;28;20064;-59
2022/10/13 02:52:49;;;;;;;9.23;5.47;;;13.20;93.60;;;;;;10394304;28;20118;-60
2022/10/13 02:57:49;;;;;;;8.15;4.55;;;13.20;93.60;;;;;;10402689;28;20076;-59
2022/10/13 03:02:50;;;;;;;9.63;4.97;;;13.20;93.60;;;;;;10398952;28;20025;-60
2022/10/13 03:07:51;;;;;;;6.95;4.82;;;13.20;93.70;;;;;;10400889;28;20485;-60
2022/10/13 03:12:53;;;;;;;8.50;4.82;;;13.20;93.70;;;;;;10402031;28;20443;-59
2022/10/13 03:17:54;;;;;;;10.10;5.22;;;13.20;93.70;;;;;;10399979;28;20037;-60
2022/10/13 03:22:55;;;;;;;10.80;5.32;;;13.20;93.70;;;;;;10399256;28;20525;-59
2022/10/13 03:27:56;;;;;;;9.38;4.30;;;13.10;93.70;;;;;;10399812;28;20045;-59
2022/10/13 03:32:56;;;;;;;9.25;4.15;;;13.20;93.70;;;;;;10401844;28;20096;-61
2022/10/13 03:37:57;;;;;;;10.07;5.03;;;13.20;93.80;;;;;;10398966;28;20462;-59
2022/10/13 03:42:58;;;;;;;9.68;5.00;;;13.10;93.80;;;;;;10400204;28;20021;-60
2022/10/13 03:47:59;;;;;;;8.63;4.60;;;13.20;93.80;;;;;;10396470;28;20509;-59
2022/10/13 03:53:00;;;;;;;11.13;5.10;;;13.10;93.80;;;;;;10399156;28;20022;-60
2022/10/13 03:58:00;;;;;;;11.55;5.05;;;13.20;93.90;;;;;;10398519;28;20167;-60
2022/10/13 04:03:01;;;;;;;11.18;4.80;;;13.10;93.90;;;;;;10400280;28;20018;-60
2022/10/13 04:08:02;;;;;;;9.73;5.13;;;13.20;93.90;;;;;;10401231;28;20030;-60
2022/10/13 04:13:03;;;;;;;10.32;4.90;;;13.20;94.00;;;;;;10398264;28;20036;-59
2022/10/13 04:18:05;;;;;;;11.10;4.57;;;13.20;94.00;;;;;;10403546;28;20033;-59
2022/10/13 04:23:06;;;;;;;8.70;4.97;;;13.20;94.00;;;;;;10404035;28;20490;-60
2022/10/13 04:28:07;;;;;;;9.25;4.75;;;13.20;94.00;;;;;;10407144;28;20077;-59
2022/10/13 04:33:08;;;;;;;10.57;5.07;;;13.10;94.00;;;;;;10408882;28;20065;-60
2022/10/13 04:38:09;;;;;;;10.63;5.25;;;13.10;94.00;;;;;;10405661;28;20033;-59
2022/10/13 04:43:10;;;;;;;9.30;5.10;;;13.10;94.10;;;;;;10406894;28;20018;-59
2022/10/13 04:48:10;;;;;;;8.43;5.05;;;13.20;94.20;;;;;;10405253;28;20041;-60
2022/10/13 04:53:11;;;;;;;9.30;4.38;;;13.20;94.20;;;;;;10408698;28;20021;-60
2022/10/13 04:58:12;;;;;;;9.48;5.13;;;13.20;94.20;;;;;;10408955;28;20511;-59
2022/10/13 05:03:12;;;;;;;12.25;5.18;;;13.20;94.20;;;;;;10405526;28;20053;-60
2022/10/13 05:08:13;;;;;;;9.23;4.72;;;13.10;94.20;;;;;;10407741;28;20125;-59
2022/10/13 05:13:14;;;;;;;10.20;4.88;;;13.20;94.20;;;;;;10405846;28;20021;-61
2022/10/13 05:18:15;;;;;;;9.50;4.28;;;13.20;94.30;;;;;;10402501;28;20029;-59
2022/10/13 05:23:16;;;;;;;7.88;4.25;;;13.10;94.20;;;;;;10403509;28;20038;-60
2022/10/13 05:28:17;;;;;;;8.20;4.38;;;13.20;94.30;;;;;;10403340;28;20053;-59
2022/10/13 05:33:17;;;;;;;7.78;4.03;;;13.20;94.30;;;;;;10403554;28;20036;-61
2022/10/13 05:38:18;;;;;;;6.57;4.28;;;13.20;94.30;;;;;;10397132;28;20116;-60
2022/10/13 05:43:19;;;;;;;8.35;4.75;;;13.20;94.30;;;;;;10398354;28;20539;-68
2022/10/13 05:48:19;;;;;;;7.47;4.60;;;13.20;94.40;;;;;;10403865;28;20271;-59
2022/10/13 05:53:22;;;;;;;8.65;4.32;;;13.20;94.40;;;;;;10396240;28;20068;-60
2022/10/13 05:58:23;;;;;;;7.53;4.35;;;13.20;94.40;;;;;;10401580;28;20048;-62
2022/10/13 06:03:26;;;;;;;9.98;4.82;;;13.20;94.40;;;;;;10405373;28;20525;-59
2022/10/13 06:08:28;;;;;;;8.07;4.45;;;13.20;94.40;;;;;;10402318;28;20030;-59
2022/10/13 06:13:29;;;;;;;6.63;3.88;;;13.20;94.40;;;;;;10406202;28;20598;-65
2022/10/13 06:18:29;;;;;;;8.98;4.40;;;13.20;94.40;;;;;;10397314;28;20041;-60
2022/10/13 06:23:30;;;;;;;8.68;4.57;;;13.20;94.40;;;;;;10400984;28;20411;-59
2022/10/13 06:28:31;;;;;;;7.18;3.92;;;13.20;94.50;;;;;;10402153;28;20044;-59
2022/10/13 06:33:32;;;;;;;7.40;4.40;;;13.20;94.50;;;;;;10404048;28;20034;-59
2022/10/13 06:38:33;;;;;;;6.68;4.50;;;13.20;94.50;;;;;;10402742;28;20032;-60
2022/10/13 06:43:34;;;;;;;10.07;5.07;;;13.20;94.50;;;;;;10397796;28;20013;-59
2022/10/13 06:48:34;;;;;;;7.97;4.32;;;13.20;94.50;;;;;;10402869;28;20037;-59
2022/10/13 06:53:36;;;;;;;7.25;4.22;;;13.20;94.50;;;;;;10401544;28;20022;-60
2022/10/13 06:58:37;;;;;;;8.40;4.55;;;13.20;94.50;;;;;;10403452;28;20044;-60
2022/10/13 07:03:38;;;;;;;7.82;4.70;;;13.10;94.60;;;;;;10393720;28;20297;-59
2022/10/13 07:08:38;;;;;;;9.73;5.00;;;13.20;94.60;;;;;;10313475;28;20044;-60
2022/10/13 07:13:41;;;;;;;7.07;4.03;;;13.20;94.70;;;;;;10310364;28;20033;-59
2022/10/13 07:18:41;;;;;;;9.32;5.05;;;13.20;94.70;;;;;;10311520;28;20029;-61
2022/10/13 07:23:42;;;;;;;9.32;4.35;;;13.20;94.70;;;;;;10310106;28;20029;-59
2022/10/13 07:28:43;;;;;;;9.48;4.50;;;13.20;94.70;;;;;;10310928;28;20600;-59
2022/10/13 07:33:46;;;;;;;8.52;4.38;;;13.20;94.60;;;;;;10311219;28;20030;-59
2022/10/13 07:38:47;;;;;;;8.23;4.53;;;13.20;94.60;;;;;;10312679;28;20153;-60
2022/10/13 07:43:48;;;;;;;6.57;4.25;;;13.30;94.70;;;;;;10308288;28;20467;-59
2022/10/13 07:48:50;;;;;;;7.65;4.60;;;13.30;94.60;;;;;;10309894;28;20050;-59
2022/10/13 07:53:51;;;;;;;7.95;4.25;;;13.30;94.60;;;;;;10313230;28;20085;-59
2022/10/13 07:58:51;;;;;;;9.00;4.43;;;13.40;94.60;;;;;;10309251;28;20026;-65
2022/10/13 08:03:55;;;;;;;7.78;4.32;;;13.30;94.60;;;;;;10312589;28;20026;-63
2022/10/13 08:08:56;;;;;;;10.45;4.40;;;13.40;94.60;;;;;;10311578;28;20107;-61
2022/10/13 08:14:00;;;;;;;8.07;4.28;;;13.40;94.60;;;;;;10314849;28;20485;-60
2022/10/13 08:19:01;;;;;;;7.82;4.55;;;13.50;94.60;;;;;;10307260;28;20429;-59
2022/10/13 08:24:05;;;;;;;8.95;4.43;;;13.40;94.50;;;;;;10311532;28;20026;-61
2022/10/13 08:29:06;;;;;;;8.57;4.43;;;13.50;94.60;;;;;;10309360;28;20079;-60
2022/10/13 08:34:07;;;;;;;9.02;4.45;;;13.50;94.80;;;;;;10316343;28;20037;-60
2022/10/13 08:39:09;;;;;;;8.90;4.57;;;13.50;94.80;;;;;;10311288;28;20630;-60
2022/10/13 08:44:50;;;;;;;10.68;4.50;;;13.50;94.90;;;;;;10309887;28;20531;-63
2022/10/13 08:49:51;;;;;;;10.25;5.00;;;13.50;95.60;;;;;;10307482;28;20498;-60
2022/10/13 08:54:59;;;;;;;14.73;5.63;;;13.50;95.20;;;;;;10313001;28;20561;-62
2022/10/13 09:00:00;;;;;;;8.88;4.93;;;13.60;95.30;;;;;;10314999;28;20278;-58
2022/10/13 09:05:02;;;;;;;12.35;5.53;;;13.60;95.50;;;;;;10322026;28;20128;-58
2022/10/13 09:10:03;;;;;;;13.02;4.65;;;13.60;95.50;;;;;;10324554;28;20049;-63
2022/10/13 09:15:08;;;;;;;13.98;5.00;;;13.60;95.50;;;;;;10325943;28;20038;-63
2022/10/13 09:20:26;;;;;;;15.23;4.75;;;13.70;95.70;;;;;;10325169;28;20483;-58
2022/10/13 09:26:05;;;;;;;11.88;4.57;;;13.70;96.20;;;;;;10316710;28;20521;-59
2022/10/13 09:31:12;;;;;;;14.80;4.75;;;13.80;96.10;;;;;;10324158;28;20054;-68
2022/10/13 09:36:16;;;;;;;12.05;4.53;;;13.30;95.80;;;;;;10314691;28;20237;-59
2022/10/13 09:41:21;;;;;;;12.65;4.68;;;13.70;95.90;;;;;;10323017;28;20037;-59
2022/10/13 09:46:37;;;;;;;20.73;5.00;;;13.70;96.00;;;;;;10320108;28;20103;-59
2022/10/13 09:51:41;;;;;;;11.52;4.43;;;13.70;96.00;;;;;;10324511;28;20056;-59
2022/10/13 09:56:47;;;;;;;10.32;4.88;;;13.60;96.00;;;;;;10318711;28;20017;-59
2022/10/13 10:01:51;;;;;;;11.07;5.05;;;13.70;96.20;;;;;;10319681;28;20469;-59
2022/10/13 10:06:52;;;;;;;9.68;4.95;;;13.70;96.20;;;;;;10317489;28;20548;-59
2022/10/13 10:11:56;;;;;;;10.10;5.18;;;14.00;96.20;;;;;;10312449;28;20063;-59
2022/10/13 10:17:03;;;;;;;8.63;4.75;;;13.70;96.20;;;;;;10313176;28;20033;-60
2022/10/13 10:22:08;;;;;;;10.15;4.82;;;13.70;96.20;;;;;;10313351;28;20034;-62
2022/10/13 10:27:23;;;;;;;8.10;4.45;;;13.70;96.20;;;;;;10309989;28;20993;-60
2022/10/13 10:32:50;;;;;;;8.80;4.80;;;13.70;96.50;;;;;;10316538;28;20227;-59
2022/10/13 10:38:29;;;;;;;7.22;4.55;;;13.70;96.20;;;;;;10306442;28;20417;-59
2022/10/13 10:44:08;;;;;;;12.52;5.68;;;13.70;96.20;;;;;;10310599;28;20029;-63
2022/10/13 10:49:38;;;;;;;8.25;5.03;;;13.70;96.70;;;;;;10322146;28;20533;-59
2022/10/13 10:54:54;;;;;;;12.10;4.95;;;13.70;96.40;;;;;;10303796;28;20094;-63
2022/10/13 11:00:05;;;;;;;10.30;5.15;;;13.70;96.30;;;;;;10319606;28;20025;-59
2022/10/13 11:05:06;;;;;;;11.18;4.95;;;13.70;96.20;;;;;;10308725;28;20371;-62
2022/10/13 11:10:12;;;;;;;9.73;5.32;;;13.80;96.40;;;;;;10320657;28;20044;-59
2022/10/13 11:15:23;;;;;;;9.90;5.50;;;13.80;96.40;;;;;;10316174;28;20037;-74
2022/10/13 11:20:43;;;;;;;8.38;4.80;;;13.80;96.40;;;;;;10316865;28;20212;-59
2022/10/13 11:25:47;;;;;;;9.48;5.28;;;13.80;96.50;;;;;;10317178;28;20040;-64
2022/10/13 11:30:56;;;;;;;7.28;4.68;;;13.80;96.30;;;;;;10320403;28;20037;-75
2022/10/13 11:35:57;;;;;;;8.73;4.50;;;13.80;96.30;;;;;;10313401;28;20034;-59
2022/10/13 11:41:23;;;;;;;10.57;5.05;;;13.80;96.30;;;;;;10314721;28;20038;-76
2022/10/13 11:46:26;;;;;;;10.30;5.10;;;13.80;96.40;;;;;;10316247;28;21334;-59
2022/10/13 11:51:49;;;;;;;8.55;5.03;;;13.80;96.20;;;;;;10310382;28;20385;-62
2022/10/13 11:56:52;;;;;;;10.20;4.38;;;13.80;96.30;;;;;;10296699;28;20073;-59
2022/10/13 12:01:57;;;;;;;8.60;4.82;;;13.80;96.20;;;;;;10310367;28;20510;-68
2022/10/13 12:07:04;;;;;;;9.50;4.70;;;13.80;96.20;;;;;;10311664;28;20481;-63
2022/10/13 12:12:17;;;;;;;9.85;4.97;;;13.80;96.20;;;;;;10314829;28;20036;-60
2022/10/13 12:17:31;;;;;;;8.57;4.43;;;13.80;96.20;;;;;;10320775;28;20056;-60
2022/10/13 12:22:32;;;;;;;9.93;4.22;;;13.80;96.20;;;;;;10313483;28;20040;-59
2022/10/13 12:27:45;;;;;;;7.50;4.60;;;13.80;96.10;;;;;;10322533;28;20266;-59
2022/10/13 12:32:51;;;;;;;7.38;4.35;;;13.80;96.10;;;;;;10313772;28;20024;-75
2022/10/13 12:37:53;;;;;;;8.95;4.88;;;13.80;96.10;;;;;;10314722;28;20531;-59
2022/10/13 12:42:54;;;;;;;8.48;5.00;;;13.80;96.10;;;;;;10321489;28;20111;-63
2022/10/13 12:47:55;;;;;;;7.18;4.53;;;13.90;96.00;;;;;;10324188;28;20496;-62
2022/10/13 12:53:07;;;;;;;8.55;4.85;;;13.90;96.00;;;;;;10319404;28;20071;-60
2022/10/13 12:58:18;;;;;;;6.15;4.15;;;13.90;96.00;;;;;;10322105;28;20134;-60
2022/10/13 13:03:25;;;;;;;7.10;4.72;;;13.90;95.90;;;;;;10321457;28;20033;-59
2022/10/13 13:08:30;;;;;;;9.40;5.13;;;13.90;95.90;;;;;;10320968;28;20069;-63
2022/10/13 13:13:31;;;;;;;23.45;10.93;;;13.90;95.90;;;;;;10323009;28;20472;-67
2022/10/13 13:18:38;;;;;;;8.27;5.70;;;14.00;96.50;;;;;;10321201;28;20369;-60
2022/10/13 13:23:39;;;;;;;9.50;5.43;;;14.00;96.60;;;;;;10319924;28;20021;-66
2022/10/13 13:28:49;;;;;;;8.35;4.78;;;14.00;96.50;;;;;;10321511;28;20049;-60
2022/10/13 13:33:50;;;;;;;9.68;4.88;;;14.10;96.60;;;;;;10319493;28;20494;-60
2022/10/13 13:38:52;;;;;;;11.02;4.97;;;14.00;96.50;;;;;;10311135;28;20558;-60
2022/10/13 13:43:53;;;;;;;10.55;5.18;;;14.00;96.50;;;;;;10320190;28;20306;-60
2022/10/13 13:48:54;;;;;;;10.10;5.07;;;14.00;96.50;;;;;;10322115;28;20068;-60
2022/10/13 13:53:54;;;;;;;10.57;4.80;;;14.00;96.70;;;;;;10321336;28;20088;-61
2022/10/13 13:58:55;;;;;;;7.65;5.32;;;14.00;96.40;;;;;;10322132;28;20106;-61
2022/10/13 14:03:56;;;;;;;9.75;4.72;;;14.00;96.40;;;;;;10322252;28;20458;-60
2022/10/13 14:08:56;;;;;;;6.97;4.60;;;14.00;96.40;;;;;;10323376;28;20090;-60
2022/10/13 14:14:00;;;;;;;7.90;4.72;;;14.10;96.50;;;;;;10321501;28;20025;-59
2022/10/13 14:19:11;;;;;;;13.15;6.47;;;14.00;96.40;;;;;;10317193;28;20345;-70
2022/10/13 14:24:11;;;;;;;22.58;7.55;;;14.10;97.20;;;;;;10316298;28;20880;-64
2022/10/13 14:29:13;;;;;;;12.98;6.00;;;14.20;97.30;;;;;;10357214;28;20123;-61
2022/10/13 14:34:14;;;;;;;12.82;5.82;;;14.20;97.40;;;;;;10326300;28;20493;-59
2022/10/13 14:39:14;;;;;;;13.40;6.07;;;14.20;97.40;;;;;;10330205;28;20624;-61
2022/10/13 14:44:15;;;;;;;10.38;5.13;;;14.20;97.40;;;;;;10326412;28;20116;-60
2022/10/13 14:49:16;;;;;;;13.02;5.22;;;14.20;97.30;;;;;;10323549;28;20037;-59
2022/10/13 14:54:17;;;;;;;8.65;5.80;;;14.20;97.30;;;;;;10330779;28;20041;-59
2022/10/13 14:59:18;;;;;;;10.85;5.15;;;14.10;97.30;;;;;;10329588;28;20150;-59
2022/10/13 15:04:18;;;;;;;9.38;4.97;;;14.10;97.60;;;;;;10327333;28;20033;-60
2022/10/13 15:09:19;;;;;;;6.55;4.60;;;14.00;97.30;;;;;;10325762;28;20041;-64
2022/10/13 15:14:20;;;;;;;12.32;4.93;;;14.10;97.30;;;;;;10313411;28;20034;-59
2022/10/13 15:19:21;;;;;;;12.63;5.35;;;14.10;97.40;;;;;;10319518;28;20045;-60
2022/10/13 15:24:21;;;;;;;8.48;4.57;;;14.10;97.40;;;;;;10323081;28;20033;-60
2022/10/13 15:29:22;;;;;;;6.95;4.93;;;14.20;97.50;;;;;;10317136;28;20596;-70
2022/10/13 15:34:23;;;;;;;8.35;4.70;;;14.10;97.40;;;;;;10318116;28;20372;-59
2022/10/13 15:39:25;;;;;;;10.85;4.90;;;14.10;97.50;;;;;;10323512;28;20265;-58
2022/10/13 15:44:26;;;;;;;9.00;5.30;;;14.10;97.50;;;;;;10317032;28;20053;-58
2022/10/13 15:49:27;;;;;;;7.68;4.72;;;14.10;97.50;;;;;;10318896;28;20570;-60
2022/10/13 15:54:28;;;;;;;6.65;4.20;;;14.10;97.50;;;;;;10314520;28;20033;-61
2022/10/13 15:59:28;;;;;;;7.13;4.40;;;14.10;97.50;;;;;;10316244;28;20076;-59
2022/10/13 16:04:29;;;;;;;7.90;4.82;;;14.10;97.50;;;;;;10320090;28;20036;-59
2022/10/13 16:09:30;;;;;;;8.00;4.70;;;14.10;97.50;;;;;;10322098;28;20054;-59
2022/10/13 16:14:31;;;;;;;10.73;5.45;;;14.10;97.60;;;;;;10324323;28;20595;-60
2022/10/13 16:19:32;;;;;;;16.27;5.88;;;14.10;97.70;;;;;;10313396;28;20266;-59
2022/10/13 16:24:33;;;;;;;21.50;6.45;;;14.10;97.80;;;;;;10313471;28;20031;-59
2022/10/13 16:29:33;;;;;;;14.80;6.22;;;14.20;98.00;;;;;;10320746;28;20049;-61
2022/10/13 16:34:34;;;;;;;19.98;5.20;;;14.20;97.90;;;;;;10315812;28;20033;-59
2022/10/13 16:39:35;;;;;;;15.43;5.38;;;14.30;98.00;;;;;;10322142;28;20552;-59
2022/10/13 16:44:36;;;;;;;24.90;5.65;;;14.20;98.00;;;;;;10315140;28;20204;-60
2022/10/13 16:49:37;;;;;;;16.13;4.93;;;14.20;98.20;;;;;;10304034;28;20422;-62
2022/10/13 16:54:37;;;;;;;11.35;4.47;;;14.20;98.00;;;;;;10298875;28;20408;-60
2022/10/13 16:59:38;;;;;;;11.02;4.40;;;14.20;98.00;;;;;;10303694;28;20088;-59
2022/10/13 17:04:39;;;;;;;8.63;4.90;;;14.20;98.00;;;;;;10364619;28;20033;-62
2022/10/13 17:09:39;;;;;;;10.48;4.68;;;14.20;98.00;;;;;;10402846;28;20060;-62
2022/10/13 17:14:40;;;;;;;25.00;8.77;;;14.20;97.90;;;;;;10405527;28;20437;-61
2022/10/13 17:19:41;;;;;;;17.45;6.97;;;14.20;98.50;;;;;;10398646;28;20022;-59
2022/10/13 17:24:46;;;;;;;20.77;6.93;;;14.10;98.70;;;;;;10397996;28;20022;-61
2022/10/13 17:29:47;;;;;;;19.80;6.95;;;14.20;98.70;;;;;;10391579;28;20054;-60
2022/10/13 17:34:48;;;;;;;16.23;6.68;;;14.20;98.70;;;;;;10399111;28;20029;-67
2022/10/13 17:39:49;;;;;;;26.00;5.93;;;14.20;98.70;;;;;;10398115;28;20490;-60
2022/10/13 17:44:49;;;;;;;13.90;6.40;;;14.20;98.70;;;;;;10395907;28;20025;-71
2022/10/13 17:49:50;;;;;;;12.02;6.32;;;14.10;98.60;;;;;;10394603;28;20041;-60
2022/10/13 17:54:51;;;;;;;10.75;6.13;;;14.10;98.50;;;;;;10393896;28;20117;-61
2022/10/13 17:59:52;;;;;;;13.30;6.35;;;14.10;98.60;;;;;;10391453;28;20017;-60
2022/10/13 18:04:52;;;;;;;10.30;6.28;;;14.10;98.50;;;;;;10398479;28;20021;-60
2022/10/13 18:09:53;;;;;;;13.32;6.22;;;14.10;98.50;;;;;;10391597;28;20040;-62
2022/10/13 18:14:54;;;;;;;10.73;5.80;;;14.10;98.50;;;;;;10391625;28;20053;-60
2022/10/13 18:19:56;;;;;;;12.00;6.15;;;14.10;98.50;;;;;;10392050;28;20033;-60
2022/10/13 18:24:57;;;;;;;9.95;5.18;;;14.10;98.40;;;;;;10395476;28;20033;-59
2022/10/13 18:29:58;;;;;;;12.93;5.97;;;14.10;98.40;;;;;;10389334;28;20060;-60
2022/10/13 18:34:58;;;;;;;11.93;5.45;;;14.10;98.40;;;;;;10394189;28;20371;-60
2022/10/13 18:39:59;;;;;;;12.80;5.43;;;14.10;98.40;;;;;;10394619;28;20026;-60
2022/10/13 18:45:00;;;;;;;10.07;5.85;;;14.10;98.30;;;;;;10389591;28;20037;-60
2022/10/13 18:50:00;;;;;;;9.25;5.32;;;14.10;98.30;;;;;;10390930;28;20042;-60
2022/10/13 18:55:01;;;;;;;9.02;5.45;;;14.10;98.30;;;;;;10394742;28;20225;-59
2022/10/13 19:00:04;;;;;;;10.65;5.60;;;14.10;98.20;;;;;;10390140;28;20044;-61
2022/10/13 19:05:05;;;;;;;9.43;5.43;;;14.10;98.20;;;;;;10397797;28;20028;-60
2022/10/13 19:10:07;;;;;;;9.38;5.25;;;14.10;98.20;;;;;;10395657;28;20037;-60
2022/10/13 19:15:08;;;;;;;10.13;5.40;;;14.10;98.20;;;;;;10398811;28;20081;-59
2022/10/13 19:20:09;;;;;;;8.10;5.13;;;14.10;98.10;;;;;;10394091;28;20037;-65
2022/10/13 19:25:10;;;;;;;9.85;5.00;;;14.10;98.10;;;;;;10398103;28;20033;-60
2022/10/13 19:30:11;;;;;;;9.13;5.78;;;14.10;98.10;;;;;;10393308;28;20057;-60
2022/10/13 19:35:12;;;;;;;11.70;5.47;;;14.10;98.10;;;;;;10393740;28;20048;-59
2022/10/13 19:40:13;;;;;;;10.20;5.45;;;14.10;98.10;;;;;;10393147;28;20048;-60
2022/10/13 19:45:14;;;;;;;13.45;5.38;;;14.10;98.10;;;;;;10391131;28;20573;-63
2022/10/13 19:50:15;;;;;;;9.75;5.00;;;14.10;98.00;;;;;;10390561;28;20041;-65
2022/10/13 19:55:15;;;;;;;7.78;4.95;;;14.00;98.00;;;;;;10395434;28;20029;-60
2022/10/13 20:00:16;;;;;;;9.23;5.28;;;14.10;98.00;;;;;;10393959;28;20033;-61
2022/10/13 20:05:17;;;;;;;8.90;5.45;;;14.10;98.00;;;;;;10392824;28;20018;-60
2022/10/13 20:10:18;;;;;;;6.97;4.80;;;14.10;98.00;;;;;;10392323;28;20041;-62
2022/10/13 20:15:19;;;;;;;10.43;5.50;;;14.10;98.00;;;;;;10392996;28;20037;-64
2022/10/13 20:20:19;;;;;;;9.95;5.32;;;14.00;98.00;;;;;;10392483;28;20089;-67
2022/10/13 20:25:40;;;;;;;8.55;5.03;;;14.10;98.00;;;;;;10390466;28;20127;-60
2022/10/13 20:30:41;;;;;;;11.45;6.40;;;14.10;98.00;;;;;;10391158;28;20505;-60
2022/10/13 20:35:41;;;;;;;11.73;5.97;;;14.10;98.10;;;;;;10394507;28;20052;-60
2022/10/13 20:40:42;;;;;;;11.45;6.20;;;14.10;98.20;;;;;;10391667;28;20033;-60
2022/10/13 20:45:43;;;;;;;10.68;6.38;;;14.10;98.20;;;;;;10394481;28;20021;-62
2022/10/13 20:50:44;;;;;;;10.30;5.47;;;14.10;98.20;;;;;;10393534;28;20064;-60
2022/10/13 20:55:54;;;;;;;8.90;5.35;;;14.10;98.20;;;;;;10391913;28;20031;-62
2022/10/13 21:00:55;;;;;;;10.70;6.07;;;14.10;98.20;;;;;;10400119;28;20057;-60
2022/10/13 21:05:56;;;;;;;9.70;6.00;;;14.10;98.20;;;;;;10399766;28;20112;-59
2022/10/13 21:11:06;;;;;;;11.45;6.13;;;14.10;98.20;;;;;;10400380;28;20044;-60
2022/10/13 21:16:08;;;;;;;9.63;5.47;;;14.10;98.20;;;;;;10399160;28;20109;-60
2022/10/13 21:21:10;;;;;;;11.50;6.32;;;14.10;98.10;;;;;;10400659;28;20076;-60
2022/10/13 21:26:11;;;;;;;8.95;5.45;;;14.10;98.10;;;;;;10399106;28;20025;-59
2022/10/13 21:31:14;;;;;;;8.25;4.90;;;14.10;98.10;;;;;;10398373;28;20394;-59
2022/10/13 21:36:27;;;;;;;8.55;5.20;;;14.00;98.10;;;;;;10399944;28;20490;-59
2022/10/13 21:41:28;;;;;;;11.88;5.20;;;14.00;98.10;;;;;;10396963;28;20032;-59
2022/10/13 21:46:31;;;;;;;9.13;5.13;;;14.00;98.10;;;;;;10397917;28;20080;-62
2022/10/13 21:51:34;;;;;;;9.15;5.70;;;14.10;98.10;;;;;;10399801;28;20074;-60
2022/10/13 21:56:36;;;;;;;9.25;5.53;;;14.10;98.10;;;;;;10400689;28;21260;-59
2022/10/13 22:01:37;;;;;;;10.00;5.65;;;14.00;98.10;;;;;;10399813;28;20110;-59
2022/10/13 22:06:38;;;;;;;11.82;6.25;;;14.00;98.10;;;;;;10401551;28;20667;-59
2022/10/13 22:11:39;;;;;;;12.63;5.40;;;14.00;98.10;;;;;;10401101;28;20036;-60
2022/10/13 22:16:46;;;;;;;10.85;5.70;;;14.00;98.10;;;;;;10401882;28;20026;-61
2022/10/13 22:21:48;;;;;;;10.82;6.03;;;14.00;98.10;;;;;;10399151;28;20029;-59
2022/10/13 22:26:50;;;;;;;9.65;5.97;;;14.00;98.10;;;;;;10403521;28;20070;-59
2022/10/13 22:31:55;;;;;;;10.30;5.70;;;14.00;98.10;;;;;;10401242;28;20045;-60
2022/10/13 22:36:56;;;;;;;9.00;5.25;;;14.00;98.10;;;;;;10402361;28;20506;-59
2022/10/13 22:41:56;;;;;;;8.30;5.20;;;14.00;98.10;;;;;;10402512;28;20029;-59
2022/10/13 22:46:57;;;;;;;7.85;5.15;;;14.00;98.10;;;;;;10400390;28;20079;-59
2022/10/13 22:51:58;;;;;;;11.07;5.85;;;14.00;98.30;;;;;;10400255;28;20140;-59
2022/10/13 22:56:58;;;;;;;9.70;5.60;;;14.00;98.10;;;;;;10404842;28;20029;-59
2022/10/13 23:01:59;;;;;;;10.52;5.65;;;14.00;98.10;;;;;;10401305;28;20036;-60
2022/10/13 23:06:59;;;;;;;8.45;5.03;;;14.00;98.10;;;;;;10403036;28;20405;-59
2022/10/13 23:12:01;;;;;;;9.30;5.35;;;14.00;98.10;;;;;;10399849;28;20045;-63
2022/10/13 23:17:01;;;;;;;9.40;5.20;;;13.90;98.10;;;;;;10400043;28;20508;-60
2022/10/13 23:22:02;;;;;;;11.40;5.55;;;14.00;98.10;;;;;;10401139;28;20032;-60
2022/10/13 23:27:03;;;;;;;8.13;5.10;;;13.90;98.10;;;;;;10398579;28;20115;-59
2022/10/13 23:32:04;;;;;;;7.78;5.13;;;13.90;98.10;;;;;;10401588;28;20548;-59
2022/10/13 23:37:05;;;;;;;9.40;4.75;;;13.90;98.20;;;;;;10394550;28;20080;-59
2022/10/13 23:42:06;;;;;;;8.05;4.97;;;13.90;98.20;;;;;;10399820;28;20108;-59
2022/10/13 23:47:06;;;;;;;7.65;4.55;;;13.90;98.20;;;;;;10398309;28;20025;-59
2022/10/13 23:52:07;;;;;;;7.63;4.72;;;13.90;98.20;;;;;;10400352;28;20035;-59
2022/10/13 23:57:08;;;;;;;8.25;4.53;;;14.00;98.20;;;;;;10397764;28;21107;-60
